Time;durP1;ratioP1;P1;durP2;ratioP2;P2;SDS_P1;SDS_P2;PMS_P1;PMS_P2;Temp;Humidity;BMP_temperature;BMP_pressure;BME280_temperature;BME280_humidity;BME280_pressure;Samples;Min_cycle;Max_cycle;Signal;HPM_P1;HPM_P2
2022/05/24 00:02:01;;;;;;;0.20;0.20;;;;;;;;;;5054912;28;20100;-77
2022/05/24 00:04:27;;;;;;;0.20;0.20;;;;;;;;;;5036715;28;20595;-77
2022/05/24 00:06:54;;;;;;;0.20;0.20;;;;;;;;;;5036930;28;20120;-78
2022/05/24 00:09:19;;;;;;;0.20;0.20;;;;;;;;;;5054639;28;20544;-77
2022/05/24 00:11:45;;;;;;;0.20;0.20;;;;;;;;;;5032922;28;20103;-77
2022/05/24 00:14:11;;;;;;;0.20;0.20;;;;;;;;;;5018194;28;20056;-77
2022/05/24 00:16:38;;;;;;;0.28;0.28;;;;;;;;;;5036843;28;20041;-78
2022/05/24 00:19:04;;;;;;;0.20;0.20;;;;;;;;;;5054595;28;20045;-77
2022/05/24 00:21:30;;;;;;;0.30;0.30;;;;;;;;;;5054451;28;20021;-77
2022/05/24 00:23:56;;;;;;;0.20;0.20;;;;;;;;;;5036689;28;20062;-78
2022/05/24 00:26:27;;;;;;;0.30;0.30;;;;;;;;;;5019955;28;20123;-77
2022/05/24 00:28:53;;;;;;;0.20;0.20;;;;;;;;;;5054404;28;20033;-78
2022/05/24 00:31:18;;;;;;;0.30;0.30;;;;;;;;;;5053496;28;20040;-78
2022/05/24 00:33:44;;;;;;;0.20;0.20;;;;;;;;;;5054131;28;20041;-78
2022/05/24 00:36:10;;;;;;;0.20;0.20;;;;;;;;;;5054422;28;20021;-77
2022/05/24 00:38:36;;;;;;;0.20;0.20;;;;;;;;;;5036549;28;20381;-76
2022/05/24 00:41:24;;;;;;;0.20;0.20;;;;;;;;;;5054326;28;20033;-77
2022/05/24 00:43:53;;;;;;;0.70;0.63;;;;;;;;;;5054039;28;20029;-78
2022/05/24 00:46:24;;;;;;;0.33;0.33;;;;;;;;;;5031895;28;20050;-77
2022/05/24 00:49:07;;;;;;;0.20;0.20;;;;;;;;;;5000340;28;20388;-77
2022/05/24 00:51:36;;;;;;;0.82;0.82;;;;;;;;;;5016389;28;20504;-77
2022/05/24 00:54:02;;;;;;;0.50;0.50;;;;;;;;;;5035185;28;20052;-76
2022/05/24 00:56:31;;;;;;;0.30;0.30;;;;;;;;;;5035972;28;20025;-77
2022/05/24 00:58:59;;;;;;;0.50;0.50;;;;;;;;;;5054011;28;20044;-76
2022/05/24 01:01:33;;;;;;;0.20;0.20;;;;;;;;;;5053441;28;20458;-77
2022/05/24 01:03:58;;;;;;;0.10;0.10;;;;;;;;;;5036078;28;20032;-76
2022/05/24 01:06:24;;;;;;;0.20;0.20;;;;;;;;;;5053878;28;20028;-76
2022/05/24 01:08:50;;;;;;;0.20;0.20;;;;;;;;;;5053033;28;20041;-76
2022/05/24 01:11:19;;;;;;;0.10;0.10;;;;;;;;;;5036016;28;20021;-76
2022/05/24 01:13:45;;;;;;;0.20;0.20;;;;;;;;;;5053872;28;20028;-77
2022/05/24 01:16:11;;;;;;;0.30;0.30;;;;;;;;;;5052874;28;20036;-76
2022/05/24 01:18:38;;;;;;;0.20;0.20;;;;;;;;;;5036261;28;20234;-76
2022/05/24 01:21:06;;;;;;;0.30;0.30;;;;;;;;;;5053615;28;20108;-76
2022/05/24 01:23:41;;;;;;;0.20;0.20;;;;;;;;;;5035857;28;20041;-76
2022/05/24 01:26:25;;;;;;;0.10;0.10;;;;;;;;;;5035650;28;20033;-75
2022/05/24 01:28:55;;;;;;;0.20;0.20;;;;;;;;;;5035776;28;20538;-77
2022/05/24 01:31:22;;;;;;;0.20;0.20;;;;;;;;;;5052676;28;20031;-79
2022/05/24 01:36:34;;;;;;;0.20;0.20;;;;;;;;;;5053323;28;20561;-78
2022/05/24 01:39:04;;;;;;;0.20;0.20;;;;;;;;;;5053862;28;20041;-78
2022/05/24 01:41:31;;;;;;;0.20;0.20;;;;;;;;;;5053380;28;20031;-76
2022/05/24 01:43:59;;;;;;;0.20;0.20;;;;;;;;;;5035320;28;20134;-78
2022/05/24 01:46:34;;;;;;;0.20;0.20;;;;;;;;;;5053209;28;20037;-77
2022/05/24 01:49:02;;;;;;;0.35;0.35;;;;;;;;;;5053071;28;20091;-75
2022/05/24 01:51:30;;;;;;;0.55;0.55;;;;;;;;;;5035342;28;20060;-74
2022/05/24 01:53:58;;;;;;;0.40;0.40;;;;;;;;;;5053156;28;20365;-74
2022/05/24 01:56:27;;;;;;;0.20;0.20;;;;;;;;;;5035056;28;20029;-74
2022/05/24 01:58:54;;;;;;;0.10;0.10;;;;;;;;;;5035288;28;20025;-74
2022/05/24 02:01:30;;;;;;;0.20;0.20;;;;;;;;;;5051992;28;20025;-74
2022/05/24 02:03:59;;;;;;;0.20;0.20;;;;;;;;;;5035291;28;20047;-74
2022/05/24 02:06:26;;;;;;;0.20;0.20;;;;;;;;;;5052985;28;20047;-74
2022/05/24 02:08:52;;;;;;;0.10;0.10;;;;;;;;;;5035204;28;20021;-74
2022/05/24 02:11:20;;;;;;;0.20;0.20;;;;;;;;;;5035268;28;20118;-74
2022/05/24 02:13:46;;;;;;;0.65;0.65;;;;;;;;;;5052818;28;20064;-74
2022/05/24 02:16:15;;;;;;;0.20;0.20;;;;;;;;;;5034274;28;20121;-74
2022/05/24 02:18:43;;;;;;;0.85;0.77;;;;;;;;;;5052841;28;20095;-76
2022/05/24 02:21:09;;;;;;;0.30;0.30;;;;;;;;;;5033530;28;20033;-76
2022/05/24 02:23:45;;;;;;;0.35;0.35;;;;;;;;;;5035082;28;20515;-77
2022/05/24 02:26:11;;;;;;;0.20;0.20;;;;;;;;;;5034813;28;20033;-77
2022/05/24 02:28:37;;;;;;;0.57;0.57;;;;;;;;;;5034559;28;20024;-77
2022/05/24 02:31:05;;;;;;;0.20;0.20;;;;;;;;;;5052186;28;20066;-76
2022/05/24 02:33:30;;;;;;;0.20;0.20;;;;;;;;;;5052653;28;20109;-77
2022/05/24 02:35:56;;;;;;;0.20;0.20;;;;;;;;;;5052620;28;20120;-77
2022/05/24 02:38:22;;;;;;;1.67;1.58;;;;;;;;;;5052589;28;20383;-77
2022/05/24 02:43:35;;;;;;;0.20;0.20;;;;;;;;;;5014980;28;20095;-78
2022/05/24 02:46:00;;;;;;;0.20;0.20;;;;;;;;;;5027556;28;20423;-77
2022/05/24 02:48:26;;;;;;;0.20;0.20;;;;;;;;;;5032495;28;20473;-77
2022/05/24 02:50:52;;;;;;;0.20;0.20;;;;;;;;;;5032464;28;20029;-76
2022/05/24 02:53:17;;;;;;;0.40;0.40;;;;;;;;;;5032525;28;20032;-80
2022/05/24 02:55:43;;;;;;;0.30;0.30;;;;;;;;;;5033878;28;20030;-76
2022/05/24 02:58:08;;;;;;;0.20;0.20;;;;;;;;;;5052340;28;20037;-77
2022/05/24 03:00:36;;;;;;;0.10;0.10;;;;;;;;;;5049623;28;20044;-76
2022/05/24 03:03:03;;;;;;;3.30;1.38;;;;;;;;;;5029585;28;20033;-76
2022/05/24 03:05:31;;;;;;;0.10;0.10;;;;;;;;;;5048908;28;20049;-76
2022/05/24 03:10:41;;;;;;;0.20;0.20;;;;;;;;;;5048467;28;20036;-75
2022/05/24 03:15:51;;;;;;;0.22;0.22;;;;;;;;;;5047462;28;20072;-77
2022/05/24 03:18:18;;;;;;;0.50;0.50;;;;;;;;;;5030593;28;20079;-78
2022/05/24 03:20:44;;;;;;;0.20;0.20;;;;;;;;;;5030090;28;20037;-78
2022/05/24 03:23:09;;;;;;;0.20;0.20;;;;;;;;;;5030270;28;20021;-76
2022/05/24 03:25:35;;;;;;;0.30;0.30;;;;;;;;;;5030076;28;20071;-77
2022/05/24 03:28:01;;;;;;;0.20;0.20;;;;;;;;;;5047740;28;20476;-77
2022/05/24 03:30:27;;;;;;;0.10;0.10;;;;;;;;;;5026334;28;20083;-78
2022/05/24 03:32:52;;;;;;;0.22;0.22;;;;;;;;;;5031314;28;20029;-78
2022/05/24 03:35:21;;;;;;;0.20;0.20;;;;;;;;;;5031695;28;20038;-78
2022/05/24 03:37:48;;;;;;;0.20;0.20;;;;;;;;;;5014007;28;20117;-76
2022/05/24 03:40:14;;;;;;;0.20;0.20;;;;;;;;;;5013813;28;20586;-76
2022/05/24 03:42:39;;;;;;;2.17;1.33;;;;;;;;;;5030828;28;20029;-77
2022/05/24 03:45:07;;;;;;;0.20;0.20;;;;;;;;;;5050451;28;20082;-76
2022/05/24 03:47:33;;;;;;;0.20;0.20;;;;;;;;;;5033101;28;20033;-77
2022/05/24 03:49:58;;;;;;;0.10;0.10;;;;;;;;;;5051312;28;20064;-76
2022/05/24 03:52:24;;;;;;;0.20;0.20;;;;;;;;;;5016203;28;20377;-76
2022/05/24 03:54:49;;;;;;;0.17;0.17;;;;;;;;;;5033651;28;20499;-77
2022/05/24 04:00:11;;;;;;;0.20;0.20;;;;;;;;;;5037183;28;20049;-77
2022/05/24 04:02:40;;;;;;;0.20;0.20;;;;;;;;;;5031198;28;20033;-75
2022/05/24 04:05:06;;;;;;;0.20;0.20;;;;;;;;;;5013037;28;20037;-77
2022/05/24 04:07:32;;;;;;;0.20;0.20;;;;;;;;;;5013349;28;20508;-76
2022/05/24 04:09:58;;;;;;;0.20;0.20;;;;;;;;;;5013218;28;20034;-76
2022/05/24 04:12:23;;;;;;;2.47;2.28;;;;;;;;;;5031130;28;20396;-76
2022/05/24 04:14:49;;;;;;;0.10;0.10;;;;;;;;;;5020207;28;20029;-76
2022/05/24 04:17:14;;;;;;;0.20;0.20;;;;;;;;;;5033014;28;20036;-77
2022/05/24 04:19:40;;;;;;;2.50;2.30;;;;;;;;;;5032600;28;20068;-77
2022/05/24 04:22:05;;;;;;;0.20;0.20;;;;;;;;;;5048982;28;20048;-77
2022/05/24 04:24:31;;;;;;;0.17;0.17;;;;;;;;;;5050836;28;20037;-76
2022/05/24 04:26:56;;;;;;;0.22;0.22;;;;;;;;;;5051004;28;20040;-76
2022/05/24 04:29:22;;;;;;;0.20;0.20;;;;;;;;;;5032121;28;20126;-77
2022/05/24 04:31:47;;;;;;;0.30;0.30;;;;;;;;;;5044243;28;20039;-77
2022/05/24 04:34:14;;;;;;;0.40;0.40;;;;;;;;;;5031239;28;20033;-77
2022/05/24 04:36:39;;;;;;;0.20;0.20;;;;;;;;;;5033396;28;20041;-76
2022/05/24 04:39:05;;;;;;;0.20;0.20;;;;;;;;;;5052399;28;20037;-76
2022/05/24 04:44:14;;;;;;;0.45;0.45;;;;;;;;;;5048440;28;20036;-77
2022/05/24 04:49:24;;;;;;;0.45;0.45;;;;;;;;;;5044908;28;20048;-77
2022/05/24 04:51:56;;;;;;;6.60;0.75;;;;;;;;;;5037875;28;20035;-76
2022/05/24 04:54:25;;;;;;;0.20;0.20;;;;;;;;;;5050280;28;20112;-77
2022/05/24 04:56:50;;;;;;;0.30;0.30;;;;;;;;;;5049727;28;20120;-76
2022/05/24 04:59:17;;;;;;;0.20;0.20;;;;;;;;;;5049400;28;20087;-76
2022/05/24 05:01:43;;;;;;;0.20;0.20;;;;;;;;;;5048077;28;20797;-75
2022/05/24 05:04:09;;;;;;;0.30;0.30;;;;;;;;;;5047770;28;20492;-76
2022/05/24 05:06:35;;;;;;;0.38;0.38;;;;;;;;;;5050493;28;20040;-74
2022/05/24 05:09:00;;;;;;;3.85;1.05;;;;;;;;;;5031842;28;20037;-75
2022/05/24 05:11:26;;;;;;;5.80;5.20;;;;;;;;;;5033388;28;20111;-76
2022/05/24 05:13:52;;;;;;;2.70;2.25;;;;;;;;;;5029918;28;20870;-75
2022/05/24 05:16:18;;;;;;;10.18;4.13;;;;;;;;;;5029542;28;20491;-75
2022/05/24 05:18:43;;;;;;;0.60;0.60;;;;;;;;;;5038726;28;20049;-75
2022/05/24 05:21:09;;;;;;;5.15;3.70;;;;;;;;;;5042664;28;20113;-75
2022/05/24 05:23:35;;;;;;;14.77;13.73;;;;;;;;;;5027633;28;20025;-77
2022/05/24 05:26:02;;;;;;;8.45;6.05;;;;;;;;;;5029371;28;20044;-76
2022/05/24 05:28:27;;;;;;;9.57;6.30;;;;;;;;;;5030079;28;20037;-76
2022/05/24 05:33:37;;;;;;;7.88;1.52;;;;;;;;;;5029819;28;20436;-75
2022/05/24 05:36:03;;;;;;;2.10;1.90;;;;;;;;;;5029538;28;20034;-75
2022/05/24 05:38:29;;;;;;;5.90;2.22;;;;;;;;;;5011666;28;20056;-75
2022/05/24 05:40:55;;;;;;;7.55;3.92;;;;;;;;;;5029567;28;20405;-78
2022/05/24 05:43:21;;;;;;;0.85;0.70;;;;;;;;;;5029608;28;20044;-76
2022/05/24 05:45:53;;;;;;;1.35;0.95;;;;;;;;;;5029303;28;20026;-76
2022/05/24 05:48:19;;;;;;;1.58;1.48;;;;;;;;;;5029085;28;20041;-76
2022/05/24 05:50:46;;;;;;;0.60;0.60;;;;;;;;;;5028045;28;20014;-76
2022/05/24 05:53:11;;;;;;;0.20;0.20;;;;;;;;;;5028051;28;20453;-76
2022/05/24 05:55:37;;;;;;;0.20;0.20;;;;;;;;;;5037510;28;20060;-76
2022/05/24 05:58:03;;;;;;;0.22;0.22;;;;;;;;;;5048329;28;20030;-77
2022/05/24 06:00:29;;;;;;;0.95;0.95;;;;;;;;;;5042203;28;20055;-78
2022/05/24 06:02:54;;;;;;;0.40;0.40;;;;;;;;;;5032969;28;20087;-76
2022/05/24 06:05:19;;;;;;;2.30;1.38;;;;;;;;;;5047768;28;20450;-76
2022/05/24 06:07:45;;;;;;;9.60;9.05;;;;;;;;;;5029560;28;20048;-77
2022/05/24 06:10:11;;;;;;;0.52;0.52;;;;;;;;;;5023026;28;20036;-78
2022/05/24 06:12:36;;;;;;;0.20;0.20;;;;;;;;;;5047326;28;20075;-78
2022/05/24 06:15:02;;;;;;;0.20;0.20;;;;;;;;;;5040023;28;20415;-77
2022/05/24 06:17:28;;;;;;;0.30;0.30;;;;;;;;;;5034377;28;20116;-79
2022/05/24 06:19:53;;;;;;;0.20;0.20;;;;;;;;;;5047691;28;20048;-76
2022/05/24 06:22:19;;;;;;;0.30;0.30;;;;;;;;;;5015992;28;20068;-76
2022/05/24 06:24:46;;;;;;;0.22;0.22;;;;;;;;;;5034187;28;20125;-76
2022/05/24 06:27:12;;;;;;;0.20;0.20;;;;;;;;;;5043407;28;20135;-77
2022/05/24 06:29:38;;;;;;;0.20;0.20;;;;;;;;;;5054855;28;20531;-77
2022/05/24 06:32:04;;;;;;;0.20;0.20;;;;;;;;;;5063915;28;20029;-78
2022/05/24 06:34:30;;;;;;;0.38;0.38;;;;;;;;;;5061035;28;20068;-78
2022/05/24 06:36:56;;;;;;;0.30;0.30;;;;;;;;;;5037718;28;20072;-77
2022/05/24 06:39:22;;;;;;;26.80;3.45;;;;;;;;;;5018805;28;20470;-77
2022/05/24 06:41:47;;;;;;;0.30;0.30;;;;;;;;;;5044722;28;20108;-76
2022/05/24 06:44:14;;;;;;;0.30;0.30;;;;;;;;;;5028465;28;20044;-77
2022/05/24 06:46:40;;;;;;;0.20;0.20;;;;;;;;;;5046929;28;20033;-76
2022/05/24 06:49:05;;;;;;;0.28;0.28;;;;;;;;;;5050036;28;20150;-76
2022/05/24 06:51:31;;;;;;;0.28;0.28;;;;;;;;;;5048318;28;20468;-77
2022/05/24 06:53:57;;;;;;;0.20;0.20;;;;;;;;;;5048053;28;20480;-77
2022/05/24 06:56:22;;;;;;;0.28;0.28;;;;;;;;;;5025502;28;20034;-76
2022/05/24 06:58:49;;;;;;;0.50;0.50;;;;;;;;;;5028518;28;20034;-76
2022/05/24 07:03:59;;;;;;;0.60;0.60;;;;;;;;;;5033891;28;20064;-76
2022/05/24 07:06:25;;;;;;;2.78;0.90;;;;;;;;;;5047610;28;20072;-76
2022/05/24 07:08:51;;;;;;;3.00;1.27;;;;;;;;;;5031790;28;20036;-76
2022/05/24 07:11:18;;;;;;;0.85;0.63;;;;;;;;;;5031886;28;20507;-77
2022/05/24 07:13:43;;;;;;;0.25;0.25;;;;;;;;;;5049580;28;20029;-78
2022/05/24 07:16:09;;;;;;;0.28;0.25;;;;;;;;;;5050054;28;20117;-76
2022/05/24 07:18:36;;;;;;;0.22;0.22;;;;;;;;;;5057540;28;20076;-76
2022/05/24 07:21:03;;;;;;;1.17;0.30;;;;;;;;;;5033962;28;20025;-77
2022/05/24 07:23:28;;;;;;;1.20;1.10;;;;;;;;;;5033577;28;20051;-76
2022/05/24 07:25:55;;;;;;;5.63;1.00;;;;;;;;;;5050899;28;20044;-76
2022/05/24 07:28:22;;;;;;;0.90;0.77;;;;;;;;;;5051519;28;20037;-77
2022/05/24 07:30:47;;;;;;;1.17;0.75;;;;;;;;;;5033742;28;20029;-77
2022/05/24 07:33:13;;;;;;;1.17;0.75;;;;;;;;;;5050489;28;20048;-77
2022/05/24 07:35:39;;;;;;;2.20;0.95;;;;;;;;;;5050582;28;20033;-76
2022/05/24 07:38:06;;;;;;;2.38;1.13;;;;;;;;;;5048997;28;20225;-77
2022/05/24 07:46:02;;;;;;;0.20;0.20;;;;;;;;;;5049794;28;20028;-76
2022/05/24 07:48:29;;;;;;;0.95;0.63;;;;;;;;;;5049043;28;20120;-76
2022/05/24 07:50:55;;;;;;;5.45;0.93;;;;;;;;;;5049879;28;20044;-77
2022/05/24 07:53:20;;;;;;;3.55;1.67;;;;;;;;;;5051586;28;20392;-76
2022/05/24 07:55:46;;;;;;;4.38;1.48;;;;;;;;;;5051429;28;20032;-76
2022/05/24 07:58:12;;;;;;;1.95;0.93;;;;;;;;;;5051164;28;20048;-76
2022/05/24 08:00:38;;;;;;;2.88;1.05;;;;;;;;;;5050006;28;20396;-77
2022/05/24 08:03:04;;;;;;;1.98;0.93;;;;;;;;;;5050954;28;20040;-77
2022/05/24 08:05:31;;;;;;;1.15;0.60;;;;;;;;;;5050787;28;20462;-76
2022/05/24 08:07:57;;;;;;;1.08;0.50;;;;;;;;;;5050807;28;20118;-76
2022/05/24 08:10:23;;;;;;;1.42;0.80;;;;;;;;;;5051118;28;20029;-76
2022/05/24 08:12:48;;;;;;;0.75;0.60;;;;;;;;;;5051205;28;20521;-78
2022/05/24 08:15:14;;;;;;;2.20;0.77;;;;;;;;;;5051139;28;20083;-77
2022/05/24 08:17:39;;;;;;;0.60;0.47;;;;;;;;;;5050728;28;20112;-77
2022/05/24 08:20:06;;;;;;;0.30;0.30;;;;;;;;;;5050718;28;20032;-77
2022/05/24 08:22:31;;;;;;;1.67;1.00;;;;;;;;;;5049667;28;20085;-77
2022/05/24 08:24:57;;;;;;;0.45;0.45;;;;;;;;;;5049596;28;20119;-77
2022/05/24 08:27:22;;;;;;;0.30;0.30;;;;;;;;;;5050193;28;20033;-77
2022/05/24 08:29:48;;;;;;;3.40;0.70;;;;;;;;;;5026954;28;20053;-76
2022/05/24 08:32:13;;;;;;;0.88;0.70;;;;;;;;;;5045421;28;20081;-77
2022/05/24 08:34:39;;;;;;;9.30;0.77;;;;;;;;;;5038435;28;20113;-78
2022/05/24 08:37:05;;;;;;;3.45;1.00;;;;;;;;;;5049940;28;20037;-78
2022/05/24 08:39:31;;;;;;;1.45;0.90;;;;;;;;;;5050039;28;20036;-77
2022/05/24 08:42:05;;;;;;;0.98;0.70;;;;;;;;;;5049989;28;20037;-78
2022/05/24 08:50:11;;;;;;;7.72;1.23;;;;;;;;;;5050347;28;20037;-77
2022/05/24 08:52:43;;;;;;;0.38;0.38;;;;;;;;;;5032005;28;20090;-78
2022/05/24 08:55:10;;;;;;;6.43;1.42;;;;;;;;;;5050092;28;20087;-79
2022/05/24 08:57:39;;;;;;;5.72;1.00;;;;;;;;;;5031375;28;20110;-77
2022/05/24 09:00:10;;;;;;;3.78;0.75;;;;;;;;;;5049733;28;20029;-78
2022/05/24 09:02:37;;;;;;;1.63;0.75;;;;;;;;;;5031855;28;20037;-78
2022/05/24 09:05:03;;;;;;;18.35;1.77;;;;;;;;;;5049643;28;20404;-78
2022/05/24 09:07:29;;;;;;;1.38;0.95;;;;;;;;;;5049846;28;20208;-77
2022/05/24 09:10:09;;;;;;;9.13;1.00;;;;;;;;;;5031758;28;20079;-77
2022/05/24 09:12:59;;;;;;;6.40;1.05;;;;;;;;;;5031395;28;20040;-76
2022/05/24 09:15:29;;;;;;;5.78;1.33;;;;;;;;;;5049463;28;20044;-77
2022/05/24 09:18:02;;;;;;;0.73;0.50;;;;;;;;;;5042977;28;20043;-76
2022/05/24 09:20:45;;;;;;;3.70;1.00;;;;;;;;;;5048698;28;20095;-77
2022/05/24 09:23:15;;;;;;;3.60;0.70;;;;;;;;;;5062865;28;20036;-77
2022/05/24 09:25:53;;;;;;;5.05;1.13;;;;;;;;;;5054718;28;20040;-77
2022/05/24 09:28:18;;;;;;;8.15;1.17;;;;;;;;;;5068945;28;20059;-77
2022/05/24 09:30:45;;;;;;;2.45;1.02;;;;;;;;;;5069068;28;20040;-77
2022/05/24 09:33:22;;;;;;;0.68;0.60;;;;;;;;;;5069424;28;20029;-76
2022/05/24 09:35:50;;;;;;;0.40;0.40;;;;;;;;;;5051415;28;20944;-76
2022/05/24 09:38:17;;;;;;;3.42;1.00;;;;;;;;;;5067100;28;20372;-76
2022/05/24 09:40:58;;;;;;;1.35;0.77;;;;;;;;;;5044886;28;20032;-78
2022/05/24 09:43:34;;;;;;;0.30;0.30;;;;;;;;;;5028963;28;20094;-78
2022/05/24 09:45:59;;;;;;;0.35;0.35;;;;;;;;;;5044661;28;20033;-78
2022/05/24 09:48:27;;;;;;;3.03;1.00;;;;;;;;;;5043284;28;20111;-77
2022/05/24 09:50:53;;;;;;;0.30;0.30;;;;;;;;;;5026821;28;20033;-78
2022/05/24 09:53:20;;;;;;;2.88;0.70;;;;;;;;;;5045479;28;20043;-78
2022/05/24 09:55:48;;;;;;;4.43;1.00;;;;;;;;;;5046023;28;20044;-78
2022/05/24 09:58:21;;;;;;;6.43;1.10;;;;;;;;;;5021850;28;20029;-78
2022/05/24 10:01:07;;;;;;;2.22;0.93;;;;;;;;;;5037765;28;20068;-77
2022/05/24 10:03:40;;;;;;;0.98;0.75;;;;;;;;;;5035545;28;20040;-77
2022/05/24 10:06:25;;;;;;;15.75;1.55;;;;;;;;;;5046183;28;20540;-76
2022/05/24 10:08:58;;;;;;;0.20;0.20;;;;;;;;;;5046576;28;20488;-76
2022/05/24 10:11:42;;;;;;;5.78;0.88;;;;;;;;;;5046561;28;20060;-76
2022/05/24 10:14:26;;;;;;;1.40;0.82;;;;;;;;;;5045847;28;20480;-77
2022/05/24 10:16:56;;;;;;;0.93;0.68;;;;;;;;;;5056478;28;20091;-76
2022/05/24 10:19:27;;;;;;;1.85;1.10;;;;;;;;;;5036763;28;20037;-76
2022/05/24 10:21:59;;;;;;;2.63;1.38;;;;;;;;;;5043271;28;20036;-77
2022/05/24 10:24:39;;;;;;;2.75;0.70;;;;;;;;;;5039308;28;20111;-78
2022/05/24 10:27:13;;;;;;;1.52;0.90;;;;;;;;;;5043235;28;20563;-78
2022/05/24 10:29:38;;;;;;;1.40;0.95;;;;;;;;;;5044043;28;20060;-77
2022/05/24 10:38:17;;;;;;;1.95;0.85;;;;;;;;;;5048049;28;20032;-78
2022/05/24 10:38:19;;;;;;;8.02;1.25;;;;;;;;;;5048155;28;20044;-77
2022/05/24 10:40:47;;;;;;;4.30;0.73;;;;;;;;;;5045956;28;20151;-77
2022/05/24 10:43:28;;;;;;;2.22;0.95;;;;;;;;;;5046376;28;20102;-76
2022/05/24 10:46:01;;;;;;;6.15;1.05;;;;;;;;;;5046722;28;20025;-76
2022/05/24 10:48:43;;;;;;;3.85;0.90;;;;;;;;;;5046394;28;20427;-77
2022/05/24 10:51:16;;;;;;;5.57;0.90;;;;;;;;;;5046548;28;20041;-77
2022/05/24 10:53:48;;;;;;;0.47;0.47;;;;;;;;;;5046449;28;20520;-77
2022/05/24 10:56:33;;;;;;;26.00;6.45;;;;;;;;;;5047457;28;20798;-77
2022/05/24 10:59:03;;;;;;;9.25;1.83;;;;;;;;;;5047819;28;20512;-78
2022/05/24 11:01:36;;;;;;;2.22;1.10;;;;;;;;;;5047942;28;20072;-79
2022/05/24 11:04:06;;;;;;;0.35;0.30;;;;;;;;;;5030145;28;20033;-78
2022/05/24 11:06:37;;;;;;;2.75;0.95;;;;;;;;;;5047786;28;20037;-77
2022/05/24 11:09:18;;;;;;;6.40;1.67;;;;;;;;;;5030312;28;20039;-78
2022/05/24 11:11:46;;;;;;;2.47;0.68;;;;;;;;;;5013801;28;20060;-78
2022/05/24 11:14:24;;;;;;;7.20;1.50;;;;;;;;;;5047713;28;20400;-77
2022/05/24 11:16:50;;;;;;;14.48;1.90;;;;;;;;;;5048002;28;20033;-78
2022/05/24 11:19:17;;;;;;;5.00;1.10;;;;;;;;;;5047814;28;20969;-77
2022/05/24 11:21:52;;;;;;;3.22;1.13;;;;;;;;;;5029897;28;20029;-76
2022/05/24 11:24:22;;;;;;;5.93;1.50;;;;;;;;;;5047538;28;20044;-79
2022/05/24 11:26:51;;;;;;;2.78;0.80;;;;;;;;;;5029250;28;20323;-80
2022/05/24 11:29:28;;;;;;;9.05;1.95;;;;;;;;;;5053716;28;20438;-78
2022/05/24 11:32:06;;;;;;;4.63;1.73;;;;;;;;;;5039665;28;20037;-77
2022/05/24 11:34:34;;;;;;;3.80;1.40;;;;;;;;;;5028133;28;20045;-78
2022/05/24 11:37:18;;;;;;;5.32;0.98;;;;;;;;;;5047762;28;20610;-78
2022/05/24 11:39:44;;;;;;;3.63;1.42;;;;;;;;;;5027549;28;20492;-78
2022/05/24 11:42:22;;;;;;;2.53;1.42;;;;;;;;;;5043557;28;20041;-78
2022/05/24 11:44:52;;;;;;;18.40;8.82;;;;;;;;;;5046462;28;20040;-79
2022/05/24 11:47:37;;;;;;;1.33;0.70;;;;;;;;;;5047737;28;20055;-77
2022/05/24 11:50:29;;;;;;;3.95;1.25;;;;;;;;;;5046323;28;20379;-78
2022/05/24 11:53:13;;;;;;;2.38;0.73;;;;;;;;;;5042330;28;20040;-78
2022/05/24 11:55:41;;;;;;;21.38;3.42;;;;;;;;;;5033329;28;20037;-80
2022/05/24 11:58:18;;;;;;;0.82;0.73;;;;;;;;;;5049637;28;20033;-77
2022/05/24 12:00:57;;;;;;;1.17;0.65;;;;;;;;;;5042070;28;20037;-77
2022/05/24 12:09:31;;;;;;;0.55;0.52;;;;;;;;;;5069067;28;20044;-76
2022/05/24 12:12:15;;;;;;;3.42;1.55;;;;;;;;;;4966717;28;20490;-77
2022/05/24 12:14:41;;;;;;;3.15;0.90;;;;;;;;;;4970874;28;20042;-77
2022/05/24 12:17:11;;;;;;;3.15;1.50;;;;;;;;;;5006877;28;20052;-77
2022/05/24 12:19:43;;;;;;;1.75;1.10;;;;;;;;;;5032569;28;20067;-78
2022/05/24 12:22:09;;;;;;;2.03;1.13;;;;;;;;;;5030731;28;20084;-77
2022/05/24 12:24:42;;;;;;;0.40;0.40;;;;;;;;;;5013614;28;20040;-77
2022/05/24 12:27:19;;;;;;;1.75;0.73;;;;;;;;;;5032330;28;20045;-76
2022/05/24 12:29:47;;;;;;;0.82;0.77;;;;;;;;;;5050099;28;20040;-79
2022/05/24 12:32:14;;;;;;;2.75;1.20;;;;;;;;;;5039510;28;20032;-77
2022/05/24 12:34:40;;;;;;;1.58;0.60;;;;;;;;;;5046679;28;20489;-78
2022/05/24 12:37:24;;;;;;;11.48;1.70;;;;;;;;;;5038823;28;20124;-79
2022/05/24 12:40:07;;;;;;;1.48;0.82;;;;;;;;;;5049478;28;20104;-77
2022/05/24 12:42:32;;;;;;;1.85;0.80;;;;;;;;;;5053153;28;20123;-78
2022/05/24 12:45:05;;;;;;;4.57;1.00;;;;;;;;;;5032191;28;20129;-77
2022/05/24 12:47:31;;;;;;;1.75;0.85;;;;;;;;;;5028503;28;20079;-78
2022/05/24 12:49:58;;;;;;;4.97;1.48;;;;;;;;;;5049311;28;20052;-79
2022/05/24 12:52:28;;;;;;;1.08;0.63;;;;;;;;;;5063555;28;20029;-77
2022/05/24 12:54:55;;;;;;;4.80;1.77;;;;;;;;;;5050105;28;20373;-78
2022/05/24 12:57:40;;;;;;;1.83;0.88;;;;;;;;;;5069484;28;20029;-79
2022/05/24 13:00:08;;;;;;;5.55;1.85;;;;;;;;;;5050012;28;20139;-77
2022/05/24 13:02:34;;;;;;;7.25;2.13;;;;;;;;;;5068450;28;20017;-76
2022/05/24 13:05:09;;;;;;;4.75;1.95;;;;;;;;;;5049208;28;20036;-77
2022/05/24 13:07:38;;;;;;;2.60;1.10;;;;;;;;;;5033679;28;20033;-77
2022/05/24 13:10:03;;;;;;;;;;;;;;;;;;5068552;28;20037;-76
2022/05/24 13:12:29;;;;;;;3.87;1.10;;;;;;;;;;5068000;28;19912;-77
2022/05/24 13:14:58;;;;;;;4.10;0.80;;;;;;;;;;5068539;28;20274;-77
2022/05/24 13:17:25;;;;;;;0.57;0.45;;;;;;;;;;5069901;28;20472;-77
2022/05/24 13:19:56;;;;;;;5.97;1.40;;;;;;;;;;5069539;28;20077;-77
2022/05/24 13:22:23;;;;;;;2.78;1.58;;;;;;;;;;5069370;28;20033;-78
2022/05/24 13:24:59;;;;;;;4.28;0.90;;;;;;;;;;5069061;28;20495;-76
2022/05/24 13:27:25;;;;;;;5.88;1.67;;;;;;;;;;5051560;28;20071;-78
2022/05/24 13:35:23;;;;;;;6.95;2.28;;;;;;;;;;5069220;28;20399;-78
2022/05/24 13:37:50;;;;;;;8.80;2.33;;;;;;;;;;5051383;28;20062;-77
2022/05/24 13:40:15;;;;;;;2.70;1.55;;;;;;;;;;5046084;28;20043;-78
2022/05/24 13:42:51;;;;;;;8.48;1.98;;;;;;;;;;5066747;28;20028;-78
2022/05/24 13:45:19;;;;;;;0.73;0.60;;;;;;;;;;5046620;28;20039;-76
2022/05/24 13:47:45;;;;;;;5.07;1.92;;;;;;;;;;5027979;28;20040;-73
2022/05/24 13:50:17;;;;;;;3.83;0.85;;;;;;;;;;5045882;28;20028;-72
2022/05/24 13:52:48;;;;;;;5.30;1.73;;;;;;;;;;5034437;28;20055;-71
2022/05/24 13:55:18;;;;;;;5.43;1.92;;;;;;;;;;5037955;28;20048;-71
2022/05/24 13:57:58;;;;;;;2.90;1.63;;;;;;;;;;5050183;28;20511;-72
2022/05/24 14:00:24;;;;;;;7.43;2.40;;;;;;;;;;5012908;28;20037;-72
2022/05/24 14:03:09;;;;;;;3.47;2.13;;;;;;;;;;5028715;28;20055;-76
2022/05/24 14:05:35;;;;;;;6.57;2.05;;;;;;;;;;5034855;28;20033;-71
2022/05/24 14:08:01;;;;;;;10.35;2.13;;;;;;;;;;5043487;28;20558;-71
2022/05/24 14:10:27;;;;;;;6.68;1.35;;;;;;;;;;5044959;28;20708;-71
2022/05/24 14:12:53;;;;;;;8.63;1.85;;;;;;;;;;5038754;28;20419;-72
2022/05/24 14:15:18;;;;;;;4.28;1.13;;;;;;;;;;5052465;28;20033;-73
2022/05/24 14:17:44;;;;;;;3.92;1.55;;;;;;;;;;5065642;28;20578;-71
2022/05/24 14:20:10;;;;;;;9.45;2.00;;;;;;;;;;5048411;28;20051;-72
2022/05/24 14:22:36;;;;;;;5.15;1.70;;;;;;;;;;5067031;28;20039;-71
2022/05/24 14:25:01;;;;;;;5.38;1.08;;;;;;;;;;5066994;28;20045;-72
2022/05/24 14:27:27;;;;;;;0.30;0.30;;;;;;;;;;5067041;28;20036;-73
2022/05/24 14:29:52;;;;;;;3.83;1.33;;;;;;;;;;5067107;28;20097;-71
2022/05/24 14:32:18;;;;;;;5.68;1.92;;;;;;;;;;5050458;28;20082;-74
2022/05/24 14:34:43;;;;;;;1.35;0.85;;;;;;;;;;5069042;28;20029;-71
2022/05/24 14:37:09;;;;;;;2.63;1.00;;;;;;;;;;5068469;28;20395;-71
2022/05/24 14:39:35;;;;;;;1.73;0.88;;;;;;;;;;5068498;28;20103;-71
2022/05/24 14:42:01;;;;;;;2.08;0.90;;;;;;;;;;5068440;28;20124;-71
2022/05/24 14:44:36;;;;;;;6.88;1.98;;;;;;;;;;5068639;28;20024;-70
2022/05/24 14:47:02;;;;;;;3.13;1.65;;;;;;;;;;5069168;28;20032;-70
2022/05/24 14:49:27;;;;;;;7.55;2.60;;;;;;;;;;5068857;28;20028;-70
2022/05/24 14:51:54;;;;;;;7.43;1.50;;;;;;;;;;5068736;28;20430;-71
2022/05/24 14:54:20;;;;;;;1.27;0.85;;;;;;;;;;5050302;28;20037;-70
2022/05/24 14:56:46;;;;;;;0.70;0.70;;;;;;;;;;5068659;28;20036;-71
2022/05/24 14:59:12;;;;;;;12.25;3.15;;;;;;;;;;5068536;28;20365;-71
2022/05/24 15:01:37;;;;;;;5.05;1.63;;;;;;;;;;5068422;28;20060;-71
2022/05/24 15:04:03;;;;;;;0.90;0.73;;;;;;;;;;5068330;28;20097;-71
2022/05/24 15:06:28;;;;;;;1.38;0.73;;;;;;;;;;5047620;28;20040;-71
2022/05/24 15:17:07;;;;;;;1.65;1.02;;;;;;;;;;5067127;28;20107;-71
2022/05/24 15:19:32;;;;;;;4.32;1.70;;;;;;;;;;5037377;28;20124;-73
2022/05/24 15:21:58;;;;;;;5.57;1.38;;;;;;;;;;5034571;28;20065;-70
2022/05/24 15:24:26;;;;;;;4.78;1.80;;;;;;;;;;5047796;28;20075;-71
2022/05/24 15:26:56;;;;;;;5.80;1.40;;;;;;;;;;5046636;28;20032;-71
2022/05/24 15:29:22;;;;;;;1.20;0.60;;;;;;;;;;5033240;28;20083;-70
2022/05/24 15:31:47;;;;;;;3.47;1.05;;;;;;;;;;5049834;28;20029;-71
2022/05/24 15:34:13;;;;;;;4.28;1.55;;;;;;;;;;5049500;28;20036;-71
2022/05/24 15:36:40;;;;;;;6.20;1.15;;;;;;;;;;5049577;28;20438;-71
2022/05/24 15:39:05;;;;;;;5.38;1.23;;;;;;;;;;5049901;28;20589;-71
2022/05/24 15:41:32;;;;;;;0.60;0.60;;;;;;;;;;5049289;28;20029;-71
2022/05/24 15:43:58;;;;;;;6.70;1.08;;;;;;;;;;5048488;28;20041;-70
2022/05/24 15:46:24;;;;;;;5.65;1.23;;;;;;;;;;5051511;28;20064;-72
2022/05/24 15:48:51;;;;;;;3.25;1.52;;;;;;;;;;5051745;28;20095;-71
2022/05/24 15:51:17;;;;;;;3.88;1.75;;;;;;;;;;5051174;28;20025;-72